sensor_id;sensor_type;location;lat;lon;timestamp;P1;durP1;ratioP1;P2;durP2;ratioP2
4686;SDS011;2357;47.316;-1.348;2022-12-26T00:01:10;6.20;;;2.37;;
4686;SDS011;2357;47.316;-1.348;2022-12-26T00:03:37;15.13;;;1.97;;
4686;SDS011;2357;47.316;-1.348;2022-12-26T00:06:03;6.17;;;1.40;;
4686;SDS011;2357;47.316;-1.348;2022-12-26T00:08:28;8.87;;;1.43;;
4686;SDS011;2357;47.316;-1.348;2022-12-26T00:10:54;5.73;;;1.20;;
4686;SDS011;2357;47.316;-1.348;2022-12-26T00:13:20;5.80;;;1.97;;
4686;SDS011;2357;47.316;-1.348;2022-12-26T00:15:46;3.50;;;1.30;;
4686;SDS011;2357;47.316;-1.348;2022-12-26T00:18:11;18.23;;;1.80;;
4686;SDS011;2357;47.316;-1.348;2022-12-26T00:20:37;6.60;;;2.20;;
4686;SDS011;2357;47.316;-1.348;2022-12-26T00:23:03;2.93;;;1.40;;
4686;SDS011;2357;47.316;-1.348;2022-12-26T00:25:28;10.50;;;2.07;;
4686;SDS011;2357;47.316;-1.348;2022-12-26T00:27:54;8.80;;;1.30;;
4686;SDS011;2357;47.316;-1.348;2022-12-26T00:30:20;5.80;;;1.40;;
4686;SDS011;2357;47.316;-1.348;2022-12-26T00:32:45;7.77;;;1.00;;
4686;SDS011;2357;47.316;-1.348;2022-12-26T00:35:11;8.37;;;1.60;;
4686;SDS011;2357;47.316;-1.348;2022-12-26T00:37:36;5.10;;;1.50;;
4686;SDS011;2357;47.316;-1.348;2022-12-26T00:40:02;9.07;;;1.23;;
4686;SDS011;2357;47.316;-1.348;2022-12-26T00:42:28;8.07;;;1.30;;
4686;SDS011;2357;47.316;-1.348;2022-12-26T00:44:54;7.00;;;1.60;;
4686;SDS011;2357;47.316;-1.348;2022-12-26T00:47:19;6.63;;;1.00;;
4686;SDS011;2357;47.316;-1.348;2022-12-26T00:49:45;9.50;;;1.43;;
4686;SDS011;2357;47.316;-1.348;2022-12-26T00:52:11;6.53;;;1.20;;
4686;SDS011;2357;47.316;-1.348;2022-12-26T00:54:36;4.83;;;1.30;;
4686;SDS011;2357;47.316;-1.348;2022-12-26T00:57:02;6.30;;;1.50;;
4686;SDS011;2357;47.316;-1.348;2022-12-26T00:59:28;4.37;;;1.40;;
4686;SDS011;2357;47.316;-1.348;2022-12-26T01:01:53;7.37;;;1.27;;
4686;SDS011;2357;47.316;-1.348;2022-12-26T01:04:19;4.27;;;1.10;;
4686;SDS011;2357;47.316;-1.348;2022-12-26T01:06:44;11.30;;;1.87;;
4686;SDS011;2357;47.316;-1.348;2022-12-26T01:09:10;9.50;;;1.20;;
4686;SDS011;2357;47.316;-1.348;2022-12-26T01:11:37;3.10;;;1.03;;
4686;SDS011;2357;47.316;-1.348;2022-12-26T01:14:07;5.13;;;1.73;;
4686;SDS011;2357;47.316;-1.348;2022-12-26T01:16:41;3.87;;;1.07;;
4686;SDS011;2357;47.316;-1.348;2022-12-26T01:19:09;4.33;;;1.50;;
4686;SDS011;2357;47.316;-1.348;2022-12-26T01:21:35;11.00;;;1.37;;
4686;SDS011;2357;47.316;-1.348;2022-12-26T01:24:01;5.40;;;1.23;;
4686;SDS011;2357;47.316;-1.348;2022-12-26T01:26:26;2.50;;;1.10;;
4686;SDS011;2357;47.316;-1.348;2022-12-26T01:28:52;8.70;;;1.27;;
4686;SDS011;2357;47.316;-1.348;2022-12-26T01:31:19;8.47;;;1.70;;
4686;SDS011;2357;47.316;-1.348;2022-12-26T01:33:45;12.40;;;1.90;;
4686;SDS011;2357;47.316;-1.348;2022-12-26T01:36:11;5.60;;;1.00;;
4686;SDS011;2357;47.316;-1.348;2022-12-26T01:38:38;14.40;;;1.50;;
4686;SDS011;2357;47.316;-1.348;2022-12-26T01:41:03;9.73;;;1.53;;
4686;SDS011;2357;47.316;-1.348;2022-12-26T01:46:20;9.00;;;0.90;;
4686;SDS011;2357;47.316;-1.348;2022-12-26T01:48:49;7.20;;;1.73;;
4686;SDS011;2357;47.316;-1.348;2022-12-26T01:51:15;5.87;;;1.30;;
4686;SDS011;2357;47.316;-1.348;2022-12-26T01:53:45;3.30;;;1.23;;
4686;SDS011;2357;47.316;-1.348;2022-12-26T01:56:15;3.20;;;0.90;;
4686;SDS011;2357;47.316;-1.348;2022-12-26T01:58:49;4.57;;;0.90;;
4686;SDS011;2357;47.316;-1.348;2022-12-26T02:01:24;5.67;;;1.03;;
4686;SDS011;2357;47.316;-1.348;2022-12-26T02:03:53;6.43;;;1.00;;
4686;SDS011;2357;47.316;-1.348;2022-12-26T02:06:38;4.30;;;1.30;;
4686;SDS011;2357;47.316;-1.348;2022-12-26T02:09:05;24.73;;;3.70;;
4686;SDS011;2357;47.316;-1.348;2022-12-26T02:11:40;17.23;;;1.67;;
4686;SDS011;2357;47.316;-1.348;2022-12-26T02:14:09;4.77;;;1.17;;
4686;SDS011;2357;47.316;-1.348;2022-12-26T02:16:36;6.80;;;1.20;;
4686;SDS011;2357;47.316;-1.348;2022-12-26T02:19:03;6.20;;;1.20;;
4686;SDS011;2357;47.316;-1.348;2022-12-26T02:41:25;13.40;;;1.50;;
4686;SDS011;2357;47.316;-1.348;2022-12-26T02:44:19;9.60;;;1.30;;
4686;SDS011;2357;47.316;-1.348;2022-12-26T02:54:04;7.07;;;1.27;;
4686;SDS011;2357;47.316;-1.348;2022-12-26T02:56:38;3.03;;;1.07;;
4686;SDS011;2357;47.316;-1.348;2022-12-26T03:02:38;3.00;;;0.93;;
4686;SDS011;2357;47.316;-1.348;2022-12-26T03:05:31;3.40;;;1.00;;
4686;SDS011;2357;47.316;-1.348;2022-12-26T03:08:29;16.20;;;2.67;;
4686;SDS011;2357;47.316;-1.348;2022-12-26T03:11:21;13.03;;;1.03;;
4686;SDS011;2357;47.316;-1.348;2022-12-26T03:14:14;4.63;;;1.43;;
4686;SDS011;2357;47.316;-1.348;2022-12-26T03:16:43;10.93;;;1.27;;
4686;SDS011;2357;47.316;-1.348;2022-12-26T03:19:31;8.07;;;1.37;;
4686;SDS011;2357;47.316;-1.348;2022-12-26T03:21:59;9.00;;;2.50;;
4686;SDS011;2357;47.316;-1.348;2022-12-26T03:24:47;12.13;;;1.40;;
4686;SDS011;2357;47.316;-1.348;2022-12-26T03:27:31;8.30;;;1.00;;
4686;SDS011;2357;47.316;-1.348;2022-12-26T03:29:57;5.97;;;1.33;;
4686;SDS011;2357;47.316;-1.348;2022-12-26T03:32:42;6.90;;;1.20;;
4686;SDS011;2357;47.316;-1.348;2022-12-26T03:35:12;15.00;;;1.77;;
4686;SDS011;2357;47.316;-1.348;2022-12-26T03:46:24;6.50;;;1.07;;
4686;SDS011;2357;47.316;-1.348;2022-12-26T03:49:32;10.53;;;2.67;;
4686;SDS011;2357;47.316;-1.348;2022-12-26T03:55:15;8.60;;;1.73;;
4686;SDS011;2357;47.316;-1.348;2022-12-26T03:58:05;4.40;;;1.50;;
4686;SDS011;2357;47.316;-1.348;2022-12-26T04:00:56;9.37;;;1.30;;
4686;SDS011;2357;47.316;-1.348;2022-12-26T04:03:43;7.43;;;1.43;;
4686;SDS011;2357;47.316;-1.348;2022-12-26T04:06:32;3.03;;;0.97;;
4686;SDS011;2357;47.316;-1.348;2022-12-26T04:09:28;6.37;;;1.30;;
4686;SDS011;2357;47.316;-1.348;2022-12-26T04:12:19;10.33;;;1.07;;
4686;SDS011;2357;47.316;-1.348;2022-12-26T04:15:15;11.80;;;1.03;;
4686;SDS011;2357;47.316;-1.348;2022-12-26T04:18:08;6.03;;;2.20;;
4686;SDS011;2357;47.316;-1.348;2022-12-26T04:24:30;10.90;;;0.87;;
4686;SDS011;2357;47.316;-1.348;2022-12-26T04:27:20;5.30;;;0.93;;
4686;SDS011;2357;47.316;-1.348;2022-12-26T04:30:09;2.73;;;0.90;;
4686;SDS011;2357;47.316;-1.348;2022-12-26T04:32:54;4.67;;;1.20;;
4686;SDS011;2357;47.316;-1.348;2022-12-26T04:35:52;8.17;;;1.17;;
4686;SDS011;2357;47.316;-1.348;2022-12-26T04:38:46;13.23;;;0.90;;
4686;SDS011;2357;47.316;-1.348;2022-12-26T04:41:33;7.87;;;1.10;;
4686;SDS011;2357;47.316;-1.348;2022-12-26T04:44:18;4.07;;;1.20;;
4686;SDS011;2357;47.316;-1.348;2022-12-26T04:46:49;6.07;;;1.20;;
4686;SDS011;2357;47.316;-1.348;2022-12-26T04:49:17;7.20;;;1.13;;
4686;SDS011;2357;47.316;-1.348;2022-12-26T04:52:09;10.53;;;1.47;;
4686;SDS011;2357;47.316;-1.348;2022-12-26T04:54:37;7.40;;;1.40;;
4686;SDS011;2357;47.316;-1.348;2022-12-26T04:57:03;13.13;;;2.10;;
4686;SDS011;2357;47.316;-1.348;2022-12-26T04:59:30;4.27;;;1.23;;
4686;SDS011;2357;47.316;-1.348;2022-12-26T05:01:56;6.20;;;0.80;;
4686;SDS011;2357;47.316;-1.348;2022-12-26T05:04:40;7.90;;;1.20;;
4686;SDS011;2357;47.316;-1.348;2022-12-26T05:07:26;8.60;;;1.13;;
4686;SDS011;2357;47.316;-1.348;2022-12-26T05:10:19;8.13;;;1.10;;
4686;SDS011;2357;47.316;-1.348;2022-12-26T05:12:50;7.90;;;0.80;;
4686;SDS011;2357;47.316;-1.348;2022-12-26T05:15:16;8.03;;;1.13;;
4686;SDS011;2357;47.316;-1.348;2022-12-26T05:17:42;15.90;;;1.50;;
4686;SDS011;2357;47.316;-1.348;2022-12-26T05:20:26;4.77;;;0.80;;
4686;SDS011;2357;47.316;-1.348;2022-12-26T05:23:15;4.43;;;1.03;;
4686;SDS011;2357;47.316;-1.348;2022-12-26T05:26:00;5.83;;;1.00;;
4686;SDS011;2357;47.316;-1.348;2022-12-26T05:28:45;3.23;;;0.93;;
4686;SDS011;2357;47.316;-1.348;2022-12-26T05:31:15;6.40;;;0.80;;
4686;SDS011;2357;47.316;-1.348;2022-12-26T05:33:43;6.60;;;2.30;;
4686;SDS011;2357;47.316;-1.348;2022-12-26T05:36:28;11.37;;;1.13;;
4686;SDS011;2357;47.316;-1.348;2022-12-26T05:38:57;3.43;;;1.50;;
4686;SDS011;2357;47.316;-1.348;2022-12-26T05:41:23;8.63;;;1.17;;
4686;SDS011;2357;47.316;-1.348;2022-12-26T05:43:49;5.60;;;1.00;;
4686;SDS011;2357;47.316;-1.348;2022-12-26T05:46:15;8.90;;;1.80;;
4686;SDS011;2357;47.316;-1.348;2022-12-26T05:48:40;3.80;;;0.73;;
4686;SDS011;2357;47.316;-1.348;2022-12-26T05:51:06;3.60;;;1.57;;
4686;SDS011;2357;47.316;-1.348;2022-12-26T05:53:33;5.03;;;1.43;;
4686;SDS011;2357;47.316;-1.348;2022-12-26T05:56:06;13.07;;;1.70;;
4686;SDS011;2357;47.316;-1.348;2022-12-26T05:58:34;5.30;;;1.33;;
4686;SDS011;2357;47.316;-1.348;2022-12-26T06:01:04;4.33;;;0.83;;
4686;SDS011;2357;47.316;-1.348;2022-12-26T06:03:31;8.17;;;0.90;;
4686;SDS011;2357;47.316;-1.348;2022-12-26T06:05:57;3.27;;;1.00;;
4686;SDS011;2357;47.316;-1.348;2022-12-26T06:08:23;12.73;;;1.40;;
4686;SDS011;2357;47.316;-1.348;2022-12-26T06:10:49;5.07;;;1.10;;
4686;SDS011;2357;47.316;-1.348;2022-12-26T06:13:14;6.90;;;1.07;;
4686;SDS011;2357;47.316;-1.348;2022-12-26T06:15:40;5.10;;;1.00;;
4686;SDS011;2357;47.316;-1.348;2022-12-26T06:18:05;4.80;;;0.90;;
4686;SDS011;2357;47.316;-1.348;2022-12-26T06:20:31;9.05;;;1.52;;
4686;SDS011;2357;47.316;-1.348;2022-12-26T06:22:56;3.03;;;0.80;;
4686;SDS011;2357;47.316;-1.348;2022-12-26T06:25:22;9.23;;;1.00;;
4686;SDS011;2357;47.316;-1.348;2022-12-26T06:27:48;9.30;;;1.27;;
4686;SDS011;2357;47.316;-1.348;2022-12-26T06:30:13;4.87;;;0.87;;
4686;SDS011;2357;47.316;-1.348;2022-12-26T06:32:39;6.00;;;1.20;;
4686;SDS011;2357;47.316;-1.348;2022-12-26T06:35:05;1.80;;;1.10;;
4686;SDS011;2357;47.316;-1.348;2022-12-26T06:37:31;4.57;;;1.03;;
4686;SDS011;2357;47.316;-1.348;2022-12-26T06:39:57;4.33;;;1.30;;
4686;SDS011;2357;47.316;-1.348;2022-12-26T06:42:23;8.00;;;1.80;;
4686;SDS011;2357;47.316;-1.348;2022-12-26T06:44:49;5.67;;;1.20;;
4686;SDS011;2357;47.316;-1.348;2022-12-26T06:47:14;1.20;;;0.90;;
4686;SDS011;2357;47.316;-1.348;2022-12-26T06:49:40;5.40;;;1.03;;
4686;SDS011;2357;47.316;-1.348;2022-12-26T06:52:05;1.83;;;0.90;;
4686;SDS011;2357;47.316;-1.348;2022-12-26T06:54:32;5.87;;;1.57;;
4686;SDS011;2357;47.316;-1.348;2022-12-26T06:56:59;3.60;;;0.83;;
4686;SDS011;2357;47.316;-1.348;2022-12-26T06:59:24;3.67;;;1.20;;
4686;SDS011;2357;47.316;-1.348;2022-12-26T07:01:50;1.93;;;0.87;;
4686;SDS011;2357;47.316;-1.348;2022-12-26T07:04:16;4.63;;;0.80;;
4686;SDS011;2357;47.316;-1.348;2022-12-26T07:06:41;10.17;;;1.13;;
4686;SDS011;2357;47.316;-1.348;2022-12-26T07:09:09;8.50;;;0.80;;
4686;SDS011;2357;47.316;-1.348;2022-12-26T07:11:40;5.50;;;1.20;;
4686;SDS011;2357;47.316;-1.348;2022-12-26T07:14:10;4.30;;;0.90;;
4686;SDS011;2357;47.316;-1.348;2022-12-26T07:16:36;14.13;;;0.83;;
4686;SDS011;2357;47.316;-1.348;2022-12-26T07:19:03;10.87;;;2.30;;
4686;SDS011;2357;47.316;-1.348;2022-12-26T07:21:30;2.90;;;0.80;;
4686;SDS011;2357;47.316;-1.348;2022-12-26T07:23:55;5.03;;;1.03;;
4686;SDS011;2357;47.316;-1.348;2022-12-26T07:26:22;4.17;;;2.03;;
4686;SDS011;2357;47.316;-1.348;2022-12-26T07:28:52;3.87;;;1.10;;
4686;SDS011;2357;47.316;-1.348;2022-12-26T07:31:22;5.83;;;1.00;;
4686;SDS011;2357;47.316;-1.348;2022-12-26T07:33:49;5.53;;;0.83;;
4686;SDS011;2357;47.316;-1.348;2022-12-26T07:36:16;8.03;;;1.03;;
4686;SDS011;2357;47.316;-1.348;2022-12-26T07:38:42;6.40;;;0.90;;
4686;SDS011;2357;47.316;-1.348;2022-12-26T07:41:08;4.03;;;0.90;;
4686;SDS011;2357;47.316;-1.348;2022-12-26T07:43:52;1.00;;;1.00;;
4686;SDS011;2357;47.316;-1.348;2022-12-26T07:46:18;2.73;;;1.53;;
4686;SDS011;2357;47.316;-1.348;2022-12-26T07:48:44;2.30;;;0.77;;
4686;SDS011;2357;47.316;-1.348;2022-12-26T07:51:10;8.13;;;1.07;;
4686;SDS011;2357;47.316;-1.348;2022-12-26T07:53:36;8.20;;;0.80;;
4686;SDS011;2357;47.316;-1.348;2022-12-26T07:56:01;4.03;;;0.70;;
4686;SDS011;2357;47.316;-1.348;2022-12-26T07:58:27;12.57;;;0.90;;
4686;SDS011;2357;47.316;-1.348;2022-12-26T08:00:53;5.20;;;1.00;;
4686;SDS011;2357;47.316;-1.348;2022-12-26T08:03:18;3.80;;;1.13;;
4686;SDS011;2357;47.316;-1.348;2022-12-26T08:05:44;2.17;;;1.10;;
4686;SDS011;2357;47.316;-1.348;2022-12-26T08:08:11;7.10;;;0.93;;
4686;SDS011;2357;47.316;-1.348;2022-12-26T08:10:37;9.00;;;1.10;;
4686;SDS011;2357;47.316;-1.348;2022-12-26T08:13:02;6.50;;;1.30;;
4686;SDS011;2357;47.316;-1.348;2022-12-26T08:15:28;5.90;;;0.90;;
4686;SDS011;2357;47.316;-1.348;2022-12-26T08:17:54;5.43;;;1.00;;
4686;SDS011;2357;47.316;-1.348;2022-12-26T08:20:19;4.97;;;2.10;;
4686;SDS011;2357;47.316;-1.348;2022-12-26T08:22:45;11.00;;;3.07;;
4686;SDS011;2357;47.316;-1.348;2022-12-26T08:25:10;8.33;;;1.67;;
4686;SDS011;2357;47.316;-1.348;2022-12-26T08:27:36;11.00;;;1.50;;
4686;SDS011;2357;47.316;-1.348;2022-12-26T08:30:02;14.50;;;1.30;;
4686;SDS011;2357;47.316;-1.348;2022-12-26T08:32:29;10.10;;;1.63;;
4686;SDS011;2357;47.316;-1.348;2022-12-26T08:34:55;10.67;;;1.20;;
4686;SDS011;2357;47.316;-1.348;2022-12-26T08:37:20;11.10;;;1.67;;
4686;SDS011;2357;47.316;-1.348;2022-12-26T08:39:48;5.87;;;1.40;;
4686;SDS011;2357;47.316;-1.348;2022-12-26T08:42:19;2.87;;;1.70;;
4686;SDS011;2357;47.316;-1.348;2022-12-26T08:44:45;8.17;;;1.60;;
4686;SDS011;2357;47.316;-1.348;2022-12-26T08:47:11;10.50;;;1.67;;
4686;SDS011;2357;47.316;-1.348;2022-12-26T08:49:37;7.60;;;2.60;;
4686;SDS011;2357;47.316;-1.348;2022-12-26T08:52:03;12.33;;;3.43;;
4686;SDS011;2357;47.316;-1.348;2022-12-26T08:54:29;12.73;;;4.80;;
4686;SDS011;2357;47.316;-1.348;2022-12-26T08:56:55;12.17;;;2.57;;
4686;SDS011;2357;47.316;-1.348;2022-12-26T08:59:20;10.23;;;5.63;;
4686;SDS011;2357;47.316;-1.348;2022-12-26T09:01:46;21.23;;;9.80;;
4686;SDS011;2357;47.316;-1.348;2022-12-26T09:04:12;19.50;;;10.37;;
4686;SDS011;2357;47.316;-1.348;2022-12-26T09:06:38;14.27;;;6.60;;
4686;SDS011;2357;47.316;-1.348;2022-12-26T09:09:05;17.23;;;6.97;;
4686;SDS011;2357;47.316;-1.348;2022-12-26T09:11:32;8.63;;;6.17;;
4686;SDS011;2357;47.316;-1.348;2022-12-26T09:13:58;9.30;;;5.50;;
4686;SDS011;2357;47.316;-1.348;2022-12-26T09:16:26;6.20;;;2.33;;
4686;SDS011;2357;47.316;-1.348;2022-12-26T09:18:54;15.63;;;2.33;;
4686;SDS011;2357;47.316;-1.348;2022-12-26T09:21:23;3.93;;;1.20;;
4686;SDS011;2357;47.316;-1.348;2022-12-26T09:23:49;4.37;;;1.50;;
4686;SDS011;2357;47.316;-1.348;2022-12-26T09:26:16;22.90;;;2.00;;
4686;SDS011;2357;47.316;-1.348;2022-12-26T09:28:45;4.70;;;1.03;;
4686;SDS011;2357;47.316;-1.348;2022-12-26T09:31:12;9.20;;;1.40;;
4686;SDS011;2357;47.316;-1.348;2022-12-26T09:33:40;3.40;;;1.00;;
4686;SDS011;2357;47.316;-1.348;2022-12-26T09:36:07;8.23;;;2.37;;
4686;SDS011;2357;47.316;-1.348;2022-12-26T09:38:35;6.67;;;1.90;;
4686;SDS011;2357;47.316;-1.348;2022-12-26T09:41:25;4.88;;;2.28;;
4686;SDS011;2357;47.316;-1.348;2022-12-26T09:46:35;5.67;;;1.90;;
4686;SDS011;2357;47.316;-1.348;2022-12-26T09:49:12;9.93;;;1.88;;
4686;SDS011;2357;47.316;-1.348;2022-12-26T09:51:54;10.53;;;1.57;;
4686;SDS011;2357;47.316;-1.348;2022-12-26T09:57:39;10.37;;;1.87;;
4686;SDS011;2357;47.316;-1.348;2022-12-26T10:00:15;6.00;;;1.37;;
4686;SDS011;2357;47.316;-1.348;2022-12-26T10:02:48;11.03;;;1.60;;
4686;SDS011;2357;47.316;-1.348;2022-12-26T10:05:21;16.87;;;2.07;;
4686;SDS011;2357;47.316;-1.348;2022-12-26T10:07:58;2.43;;;1.00;;
4686;SDS011;2357;47.316;-1.348;2022-12-26T10:10:37;11.17;;;2.30;;
4686;SDS011;2357;47.316;-1.348;2022-12-26T10:13:16;6.65;;;1.80;;
4686;SDS011;2357;47.316;-1.348;2022-12-26T10:24:02;17.60;;;1.37;;
4686;SDS011;2357;47.316;-1.348;2022-12-26T10:26:46;3.80;;;1.30;;
4686;SDS011;2357;47.316;-1.348;2022-12-26T10:29:18;12.10;;;1.80;;
4686;SDS011;2357;47.316;-1.348;2022-12-26T10:31:49;10.50;;;2.10;;
4686;SDS011;2357;47.316;-1.348;2022-12-26T10:37:15;7.20;;;2.20;;
4686;SDS011;2357;47.316;-1.348;2022-12-26T10:39:53;4.40;;;1.80;;
4686;SDS011;2357;47.316;-1.348;2022-12-26T10:42:32;5.50;;;1.93;;
4686;SDS011;2357;47.316;-1.348;2022-12-26T10:47:42;6.23;;;1.20;;
4686;SDS011;2357;47.316;-1.348;2022-12-26T10:50:14;3.97;;;1.73;;
4686;SDS011;2357;47.316;-1.348;2022-12-26T10:52:41;7.10;;;1.50;;
4686;SDS011;2357;47.316;-1.348;2022-12-26T10:55:14;5.17;;;1.13;;
4686;SDS011;2357;47.316;-1.348;2022-12-26T10:57:43;5.03;;;1.33;;
4686;SDS011;2357;47.316;-1.348;2022-12-26T11:00:13;8.90;;;2.00;;
4686;SDS011;2357;47.316;-1.348;2022-12-26T11:02:43;5.30;;;1.47;;
4686;SDS011;2357;47.316;-1.348;2022-12-26T11:05:10;6.10;;;1.83;;
4686;SDS011;2357;47.316;-1.348;2022-12-26T11:07:39;6.50;;;1.80;;
4686;SDS011;2357;47.316;-1.348;2022-12-26T11:10:21;11.80;;;2.30;;
4686;SDS011;2357;47.316;-1.348;2022-12-26T11:12:53;8.73;;;1.90;;
4686;SDS011;2357;47.316;-1.348;2022-12-26T11:15:21;15.13;;;3.47;;
4686;SDS011;2357;47.316;-1.348;2022-12-26T11:17:55;10.53;;;2.43;;
4686;SDS011;2357;47.316;-1.348;2022-12-26T11:20:43;9.27;;;2.10;;
4686;SDS011;2357;47.316;-1.348;2022-12-26T11:23:19;10.67;;;2.10;;
4686;SDS011;2357;47.316;-1.348;2022-12-26T11:25:57;5.30;;;2.43;;
4686;SDS011;2357;47.316;-1.348;2022-12-26T11:28:34;19.40;;;3.00;;
4686;SDS011;2357;47.316;-1.348;2022-12-26T11:31:05;6.83;;;1.63;;
4686;SDS011;2357;47.316;-1.348;2022-12-26T11:46:36;11.10;;;1.90;;
4686;SDS011;2357;47.316;-1.348;2022-12-26T11:51:50;7.80;;;1.80;;
4686;SDS011;2357;47.316;-1.348;2022-12-26T11:54:30;10.33;;;1.53;;
4686;SDS011;2357;47.316;-1.348;2022-12-26T11:57:00;11.27;;;2.30;;
4686;SDS011;2357;47.316;-1.348;2022-12-26T11:59:28;8.13;;;1.63;;
4686;SDS011;2357;47.316;-1.348;2022-12-26T12:04:47;3.60;;;1.23;;
4686;SDS011;2357;47.316;-1.348;2022-12-26T12:12:42;6.60;;;1.67;;
4686;SDS011;2357;47.316;-1.348;2022-12-26T12:15:24;14.07;;;1.90;;
4686;SDS011;2357;47.316;-1.348;2022-12-26T12:18:58;11.13;;;1.50;;
4686;SDS011;2357;47.316;-1.348;2022-12-26T12:26:34;7.77;;;2.07;;
4686;SDS011;2357;47.316;-1.348;2022-12-26T12:43:13;17.60;;;2.93;;
4686;SDS011;2357;47.316;-1.348;2022-12-26T12:45:55;7.83;;;1.20;;
4686;SDS011;2357;47.316;-1.348;2022-12-26T13:03:03;4.90;;;0.90;;
4686;SDS011;2357;47.316;-1.348;2022-12-26T13:08:07;4.00;;;0.97;;
4686;SDS011;2357;47.316;-1.348;2022-12-26T13:10:59;5.77;;;1.10;;
4686;SDS011;2357;47.316;-1.348;2022-12-26T13:16:06;7.60;;;1.13;;
4686;SDS011;2357;47.316;-1.348;2022-12-26T13:18:47;6.27;;;2.10;;
4686;SDS011;2357;47.316;-1.348;2022-12-26T13:21:33;8.00;;;1.20;;
4686;SDS011;2357;47.316;-1.348;2022-12-26T13:27:11;2.40;;;1.10;;
4686;SDS011;2357;47.316;-1.348;2022-12-26T13:29:54;6.27;;;1.63;;
4686;SDS011;2357;47.316;-1.348;2022-12-26T13:32:21;2.93;;;1.10;;
4686;SDS011;2357;47.316;-1.348;2022-12-26T13:34:48;3.60;;;1.20;;
4686;SDS011;2357;47.316;-1.348;2022-12-26T13:40:04;8.20;;;1.10;;
4686;SDS011;2357;47.316;-1.348;2022-12-26T13:42:31;4.27;;;0.80;;
4686;SDS011;2357;47.316;-1.348;2022-12-26T13:56:00;2.70;;;1.00;;
4686;SDS011;2357;47.316;-1.348;2022-12-26T14:01:41;1.93;;;0.60;;
4686;SDS011;2357;47.316;-1.348;2022-12-26T14:03:51;2.27;;;1.73;;
4686;SDS011;2357;47.316;-1.348;2022-12-26T14:14:31;4.30;;;0.97;;
4686;SDS011;2357;47.316;-1.348;2022-12-26T14:31:33;4.77;;;1.07;;
4686;SDS011;2357;47.316;-1.348;2022-12-26T14:39:59;0.80;;;0.50;;
4686;SDS011;2357;47.316;-1.348;2022-12-26T14:48:00;1.10;;;0.60;;
4686;SDS011;2357;47.316;-1.348;2022-12-26T15:00:50;2.13;;;1.00;;
4686;SDS011;2357;47.316;-1.348;2022-12-26T15:34:20;7.83;;;1.30;;
4686;SDS011;2357;47.316;-1.348;2022-12-26T15:42:59;11.07;;;1.20;;
4686;SDS011;2357;47.316;-1.348;2022-12-26T15:45:42;2.70;;;1.20;;
4686;SDS011;2357;47.316;-1.348;2022-12-26T15:48:18;4.43;;;1.33;;
4686;SDS011;2357;47.316;-1.348;2022-12-26T15:51:05;4.53;;;0.83;;
4686;SDS011;2357;47.316;-1.348;2022-12-26T16:01:38;2.90;;;1.30;;
4686;SDS011;2357;47.316;-1.348;2022-12-26T16:04:09;1.27;;;0.70;;
4686;SDS011;2357;47.316;-1.348;2022-12-26T16:07:15;1.63;;;0.87;;
4686;SDS011;2357;47.316;-1.348;2022-12-26T16:09:44;12.07;;;1.97;;
4686;SDS011;2357;47.316;-1.348;2022-12-26T16:14:48;2.60;;;1.00;;
4686;SDS011;2357;47.316;-1.348;2022-12-26T16:17:23;4.47;;;1.00;;
4686;SDS011;2357;47.316;-1.348;2022-12-26T16:19:49;13.83;;;1.10;;
4686;SDS011;2357;47.316;-1.348;2022-12-26T16:22:18;3.17;;;1.20;;
4686;SDS011;2357;47.316;-1.348;2022-12-26T16:25:11;4.67;;;2.60;;
4686;SDS011;2357;47.316;-1.348;2022-12-26T16:27:42;3.70;;;1.43;;
4686;SDS011;2357;47.316;-1.348;2022-12-26T16:30:14;7.63;;;1.50;;
4686;SDS011;2357;47.316;-1.348;2022-12-26T16:32:42;3.50;;;1.73;;
4686;SDS011;2357;47.316;-1.348;2022-12-26T16:35:21;6.93;;;1.50;;
4686;SDS011;2357;47.316;-1.348;2022-12-26T16:37:51;3.03;;;1.10;;
4686;SDS011;2357;47.316;-1.348;2022-12-26T16:40:37;4.77;;;1.40;;
4686;SDS011;2357;47.316;-1.348;2022-12-26T16:45:42;10.47;;;4.27;;
4686;SDS011;2357;47.316;-1.348;2022-12-26T16:48:19;10.17;;;2.80;;
4686;SDS011;2357;47.316;-1.348;2022-12-26T16:50:51;7.70;;;2.87;;
4686;SDS011;2357;47.316;-1.348;2022-12-26T16:53:24;6.60;;;2.20;;
4686;SDS011;2357;47.316;-1.348;2022-12-26T16:58:36;6.77;;;4.00;;
4686;SDS011;2357;47.316;-1.348;2022-12-26T17:01:06;10.50;;;5.67;;
4686;SDS011;2357;47.316;-1.348;2022-12-26T17:06:26;8.40;;;4.53;;
4686;SDS011;2357;47.316;-1.348;2022-12-26T17:09:03;7.60;;;5.73;;
4686;SDS011;2357;47.316;-1.348;2022-12-26T17:11:36;17.40;;;5.23;;
4686;SDS011;2357;47.316;-1.348;2022-12-26T17:14:05;5.50;;;4.03;;
4686;SDS011;2357;47.316;-1.348;2022-12-26T17:16:37;8.93;;;6.20;;
4686;SDS011;2357;47.316;-1.348;2022-12-26T17:19:19;10.60;;;6.60;;
4686;SDS011;2357;47.316;-1.348;2022-12-26T17:24:38;5.93;;;3.40;;
4686;SDS011;2357;47.316;-1.348;2022-12-26T17:29:49;2.07;;;1.80;;
4686;SDS011;2357;47.316;-1.348;2022-12-26T17:32:22;5.20;;;1.47;;
4686;SDS011;2357;47.316;-1.348;2022-12-26T17:34:58;7.63;;;2.10;;
4686;SDS011;2357;47.316;-1.348;2022-12-26T17:37:25;7.43;;;2.77;;
4686;SDS011;2357;47.316;-1.348;2022-12-26T17:39:58;7.67;;;2.73;;
4686;SDS011;2357;47.316;-1.348;2022-12-26T17:42:42;4.60;;;2.00;;
4686;SDS011;2357;47.316;-1.348;2022-12-26T17:45:16;6.10;;;2.97;;
4686;SDS011;2357;47.316;-1.348;2022-12-26T17:47:44;4.03;;;2.07;;
4686;SDS011;2357;47.316;-1.348;2022-12-26T17:50:10;8.33;;;2.20;;
4686;SDS011;2357;47.316;-1.348;2022-12-26T17:52:36;7.90;;;3.17;;
4686;SDS011;2357;47.316;-1.348;2022-12-26T17:55:02;8.37;;;2.67;;
4686;SDS011;2357;47.316;-1.348;2022-12-26T17:57:30;7.53;;;2.30;;
4686;SDS011;2357;47.316;-1.348;2022-12-26T17:59:55;7.43;;;2.67;;
4686;SDS011;2357;47.316;-1.348;2022-12-26T18:02:21;7.10;;;2.63;;
4686;SDS011;2357;47.316;-1.348;2022-12-26T18:04:47;8.60;;;2.63;;
4686;SDS011;2357;47.316;-1.348;2022-12-26T18:07:16;3.10;;;2.30;;
4686;SDS011;2357;47.316;-1.348;2022-12-26T18:09:45;4.40;;;1.87;;
4686;SDS011;2357;47.316;-1.348;2022-12-26T18:12:12;10.10;;;2.30;;
4686;SDS011;2357;47.316;-1.348;2022-12-26T18:14:39;2.57;;;1.83;;
4686;SDS011;2357;47.316;-1.348;2022-12-26T18:17:04;6.33;;;2.33;;
4686;SDS011;2357;47.316;-1.348;2022-12-26T18:19:31;12.13;;;2.50;;
4686;SDS011;2357;47.316;-1.348;2022-12-26T18:21:56;7.63;;;2.67;;
4686;SDS011;2357;47.316;-1.348;2022-12-26T18:24:22;8.63;;;2.33;;
4686;SDS011;2357;47.316;-1.348;2022-12-26T18:26:48;9.07;;;3.03;;
4686;SDS011;2357;47.316;-1.348;2022-12-26T18:29:14;12.20;;;3.00;;
4686;SDS011;2357;47.316;-1.348;2022-12-26T18:31:40;6.43;;;2.30;;
4686;SDS011;2357;47.316;-1.348;2022-12-26T18:34:05;7.03;;;2.60;;
4686;SDS011;2357;47.316;-1.348;2022-12-26T18:36:34;10.70;;;2.80;;
4686;SDS011;2357;47.316;-1.348;2022-12-26T18:39:01;9.10;;;2.47;;
4686;SDS011;2357;47.316;-1.348;2022-12-26T18:41:26;11.10;;;2.80;;
4686;SDS011;2357;47.316;-1.348;2022-12-26T18:43:52;3.83;;;2.53;;
4686;SDS011;2357;47.316;-1.348;2022-12-26T18:46:19;4.20;;;2.33;;
4686;SDS011;2357;47.316;-1.348;2022-12-26T18:48:46;9.90;;;4.83;;
4686;SDS011;2357;47.316;-1.348;2022-12-26T18:51:13;14.27;;;5.23;;
4686;SDS011;2357;47.316;-1.348;2022-12-26T18:53:38;11.03;;;2.73;;
4686;SDS011;2357;47.316;-1.348;2022-12-26T18:56:04;14.83;;;2.67;;
4686;SDS011;2357;47.316;-1.348;2022-12-26T18:58:31;5.93;;;2.90;;
4686;SDS011;2357;47.316;-1.348;2022-12-26T19:00:57;13.90;;;3.60;;
4686;SDS011;2357;47.316;-1.348;2022-12-26T19:03:25;12.57;;;5.97;;
4686;SDS011;2357;47.316;-1.348;2022-12-26T19:05:51;15.70;;;4.07;;
4686;SDS011;2357;47.316;-1.348;2022-12-26T19:08:17;14.83;;;4.03;;
4686;SDS011;2357;47.316;-1.348;2022-12-26T19:10:42;14.13;;;3.60;;
4686;SDS011;2357;47.316;-1.348;2022-12-26T19:13:13;7.37;;;3.73;;
4686;SDS011;2357;47.316;-1.348;2022-12-26T19:15:43;12.73;;;3.27;;
4686;SDS011;2357;47.316;-1.348;2022-12-26T19:18:10;15.70;;;3.80;;
4686;SDS011;2357;47.316;-1.348;2022-12-26T19:20:36;10.90;;;3.87;;
4686;SDS011;2357;47.316;-1.348;2022-12-26T19:23:02;10.97;;;4.40;;
4686;SDS011;2357;47.316;-1.348;2022-12-26T19:25:28;12.83;;;5.57;;
4686;SDS011;2357;47.316;-1.348;2022-12-26T19:27:54;12.40;;;5.30;;
4686;SDS011;2357;47.316;-1.348;2022-12-26T19:30:20;16.37;;;5.67;;
4686;SDS011;2357;47.316;-1.348;2022-12-26T19:32:46;13.90;;;5.87;;
4686;SDS011;2357;47.316;-1.348;2022-12-26T19:35:13;17.30;;;5.87;;
4686;SDS011;2357;47.316;-1.348;2022-12-26T19:37:40;13.47;;;5.20;;
4686;SDS011;2357;47.316;-1.348;2022-12-26T19:40:07;11.80;;;4.40;;